Time;durP1;ratioP1;P1;durP2;ratioP2;P2;SDS_P1;SDS_P2;PMS_P1;PMS_P2;Temp;Humidity;BMP_temperature;BMP_pressure;BME280_temperature;BME280_humidity;BME280_pressure;Samples;Min_cycle;Max_cycle;Signal;HPM_P1;HPM_P2
2022/07/10 00:00:34;;;;;;;10.82;8.57;;;17.10;99.90;;;;;;4989638;28;20027;-87
2022/07/10 00:03:00;;;;;;;12.38;7.25;;;17.20;99.90;;;;;;4997370;28;20027;-87
2022/07/10 00:05:26;;;;;;;6.88;6.15;;;17.10;99.90;;;;;;4979736;28;20027;-86
2022/07/10 00:07:52;;;;;;;9.13;7.80;;;16.90;99.90;;;;;;4997094;28;20014;-86
2022/07/10 00:10:21;;;;;;;9.25;7.78;;;17.00;99.90;;;;;;4997819;28;20042;-87
2022/07/10 00:12:48;;;;;;;7.53;6.57;;;17.10;99.90;;;;;;4979949;28;20026;-89
2022/07/10 00:15:15;;;;;;;7.57;6.63;;;17.20;99.90;;;;;;4979049;28;20085;-88
2022/07/10 00:17:42;;;;;;;6.75;6.10;;;17.30;99.90;;;;;;4997198;28;20049;-88
2022/07/10 00:20:09;;;;;;;7.33;6.63;;;17.30;99.90;;;;;;4979789;28;20037;-90
2022/07/10 00:22:36;;;;;;;7.30;6.55;;;17.40;99.90;;;;;;4966129;28;20268;-89
2022/07/10 00:25:04;;;;;;;8.60;6.40;;;17.50;99.90;;;;;;4984262;28;20424;-89
2022/07/10 00:27:30;;;;;;;9.00;6.97;;;17.60;99.90;;;;;;4997210;28;20396;-90
2022/07/10 00:29:56;;;;;;;9.95;5.70;;;17.60;99.90;;;;;;4996854;28;20114;-88
2022/07/10 00:32:22;;;;;;;10.05;5.88;;;17.60;99.90;;;;;;4997304;28;20146;-88
2022/07/10 00:34:48;;;;;;;8.73;6.60;;;17.50;99.90;;;;;;4976637;28;20046;-89
2022/07/10 00:37:13;;;;;;;7.45;5.07;;;17.50;99.90;;;;;;4997094;28;20101;-90
2022/07/10 00:39:39;;;;;;;6.57;5.50;;;17.50;99.90;;;;;;4997058;28;20389;-90
2022/07/10 00:42:14;;;;;;;6.55;5.30;;;17.60;99.90;;;;;;4997208;28;20030;-89
2022/07/10 00:44:41;;;;;;;6.80;4.70;;;17.50;99.90;;;;;;4976327;28;20018;-88
2022/07/10 00:47:09;;;;;;;7.63;5.28;;;17.40;99.90;;;;;;4996087;28;20026;-89
2022/07/10 00:49:36;;;;;;;8.68;5.68;;;17.50;99.90;;;;;;4995675;28;20022;-89
2022/07/10 00:52:06;;;;;;;10.98;6.78;;;17.50;99.90;;;;;;4996682;28;20062;-88
2022/07/10 00:54:34;;;;;;;8.68;6.05;;;17.60;99.90;;;;;;4996382;28;20107;-87
2022/07/10 00:57:03;;;;;;;7.72;6.93;;;17.40;99.90;;;;;;4997081;28;20057;-88
2022/07/10 00:59:29;;;;;;;9.48;6.35;;;17.30;99.90;;;;;;4998562;28;20129;-87
2022/07/10 01:01:55;;;;;;;7.72;6.25;;;17.30;99.90;;;;;;4979974;28;20050;-87
2022/07/10 01:04:21;;;;;;;7.95;5.55;;;17.20;99.90;;;;;;4995968;28;20023;-89
2022/07/10 01:06:47;;;;;;;8.93;6.32;;;17.10;99.90;;;;;;4996851;28;20080;-89
2022/07/10 01:09:13;;;;;;;7.65;6.82;;;17.20;99.90;;;;;;4997832;28;20069;-89
2022/07/10 01:11:39;;;;;;;9.90;7.55;;;17.20;99.90;;;;;;4996205;28;20125;-88
2022/07/10 01:14:05;;;;;;;9.68;7.45;;;17.20;99.90;;;;;;4996166;28;20018;-87
2022/07/10 01:16:32;;;;;;;11.50;8.50;;;17.20;99.90;;;;;;5010639;28;20034;-87
2022/07/10 01:18:58;;;;;;;8.15;7.20;;;17.30;99.90;;;;;;5015603;28;20061;-87
2022/07/10 01:21:24;;;;;;;7.70;6.43;;;17.20;99.90;;;;;;4997731;28;20066;-88
2022/07/10 01:23:50;;;;;;;11.40;7.30;;;17.20;99.90;;;;;;5010394;28;20029;-88
2022/07/10 01:26:16;;;;;;;7.50;6.75;;;17.20;99.90;;;;;;5011374;28;20023;-86
2022/07/10 01:28:42;;;;;;;8.02;6.18;;;17.30;99.90;;;;;;5007241;28;20089;-88
2022/07/10 01:31:08;;;;;;;8.27;6.90;;;17.30;99.90;;;;;;4984690;28;20019;-89
2022/07/10 01:33:34;;;;;;;9.30;6.80;;;17.40;99.90;;;;;;4997917;28;20046;-88
2022/07/10 01:36:00;;;;;;;10.93;8.05;;;17.40;99.90;;;;;;4996608;28;20034;-85
2022/07/10 01:38:25;;;;;;;11.77;9.52;;;17.40;99.90;;;;;;4996132;28;20049;-87
2022/07/10 01:40:51;;;;;;;8.20;7.40;;;17.50;99.90;;;;;;4996886;28;20167;-87
2022/07/10 01:43:17;;;;;;;7.88;7.15;;;17.60;99.90;;;;;;5002232;28;20098;-88
2022/07/10 01:45:44;;;;;;;9.40;8.13;;;17.60;99.90;;;;;;5015541;28;20031;-88
2022/07/10 01:48:10;;;;;;;9.63;7.93;;;17.70;99.90;;;;;;5010536;28;20432;-89
2022/07/10 01:50:35;;;;;;;8.65;7.75;;;17.70;99.90;;;;;;5000770;28;20010;-87
2022/07/10 01:53:04;;;;;;;8.27;7.28;;;17.70;99.90;;;;;;5005307;28;20027;-87
2022/07/10 01:55:30;;;;;;;9.77;8.80;;;17.80;99.90;;;;;;4996396;28;20038;-87
2022/07/10 01:57:56;;;;;;;9.68;8.65;;;17.80;99.90;;;;;;4996653;28;20015;-87
2022/07/10 02:00:21;;;;;;;9.80;7.65;;;17.90;99.90;;;;;;4997505;28;20062;-91
2022/07/10 02:04:40;;;;;;;11.15;6.97;;;17.90;99.90;;;;;;4995736;28;20105;-90
2022/07/10 02:05:33;;;;;;;8.25;7.32;;;17.80;99.90;;;;;;4995888;28;20521;-88
2022/07/10 02:07:59;;;;;;;9.75;8.13;;;17.70;99.90;;;;;;5000489;28;20030;-89
2022/07/10 02:10:25;;;;;;;9.43;7.63;;;17.60;99.90;;;;;;5001163;28;20025;-87
2022/07/10 02:12:51;;;;;;;10.60;9.55;;;17.60;99.90;;;;;;5007129;28;20392;-88
2022/07/10 02:15:17;;;;;;;11.68;9.15;;;17.70;99.90;;;;;;4998041;28;20046;-88
2022/07/10 02:17:43;;;;;;;9.10;8.23;;;17.70;99.90;;;;;;4995393;28;20067;-89
2022/07/10 02:20:10;;;;;;;8.95;8.13;;;17.80;99.90;;;;;;4994390;28;20037;-89
2022/07/10 02:22:36;;;;;;;;;;;17.80;99.90;;;;;;4971513;28;20105;-88
2022/07/10 02:25:02;;;;;;;12.90;8.85;;;17.80;99.90;;;;;;4985048;28;19957;-89
2022/07/10 02:27:28;;;;;;;12.20;8.88;;;17.80;99.90;;;;;;4995286;28;20040;-89
2022/07/10 02:29:53;;;;;;;14.23;10.63;;;17.90;99.90;;;;;;4995868;28;20097;-88
2022/07/10 02:32:19;;;;;;;10.98;8.65;;;17.90;99.90;;;;;;4995717;28;20567;-89
2022/07/10 02:34:45;;;;;;;15.65;8.90;;;17.90;99.90;;;;;;4999736;28;20047;-88
2022/07/10 02:37:11;;;;;;;10.10;8.88;;;18.00;99.90;;;;;;4994303;28;20023;-91
2022/07/10 02:39:36;;;;;;;11.02;8.00;;;18.10;99.90;;;;;;4995679;28;20387;-88
2022/07/10 02:42:03;;;;;;;11.98;8.27;;;18.40;99.90;;;;;;4995012;28;20106;-90
2022/07/10 02:44:29;;;;;;;11.50;8.95;;;18.60;99.90;;;;;;4994857;28;20096;-90
2022/07/10 02:46:55;;;;;;;11.05;8.50;;;18.80;99.90;;;;;;4995131;28;20420;-89
2022/07/10 02:49:21;;;;;;;11.05;8.23;;;19.10;99.90;;;;;;4976164;28;20029;-88
2022/07/10 02:51:46;;;;;;;12.07;7.65;;;19.30;99.90;;;;;;4993433;28;20030;-90
2022/07/10 02:54:12;;;;;;;8.43;7.25;;;19.30;99.90;;;;;;4977777;28;20030;-88
2022/07/10 02:56:39;;;;;;;11.20;8.23;;;19.50;99.90;;;;;;4999907;28;20034;-87
2022/07/10 02:59:06;;;;;;;8.80;7.75;;;19.70;99.90;;;;;;4984184;28;20083;-89
2022/07/10 03:01:32;;;;;;;12.23;7.85;;;19.80;99.90;;;;;;4979261;28;20126;-87
2022/07/10 03:03:58;;;;;;;9.27;6.72;;;20.00;99.90;;;;;;4996242;28;20054;-88
2022/07/10 03:06:24;;;;;;;10.48;8.15;;;20.20;99.90;;;;;;4994156;28;20058;-88
2022/07/10 03:08:50;;;;;;;9.45;8.48;;;20.20;99.90;;;;;;4993613;28;20483;-87
2022/07/10 03:11:15;;;;;;;12.52;8.88;;;20.30;99.90;;;;;;4993466;28;20378;-87
2022/07/10 03:13:41;;;;;;;14.48;9.80;;;20.30;99.90;;;;;;4993533;28;20019;-86
2022/07/10 03:16:07;;;;;;;15.15;10.25;;;20.10;99.90;;;;;;4993774;28;20168;-85
2022/07/10 03:18:33;;;;;;;14.52;10.57;;;20.00;99.90;;;;;;4976905;28;20029;-90
2022/07/10 03:20:59;;;;;;;12.98;11.02;;;20.10;99.90;;;;;;4997657;28;20094;-88
2022/07/10 03:23:25;;;;;;;13.63;10.63;;;20.10;99.90;;;;;;5002976;28;20037;-89
2022/07/10 03:25:51;;;;;;;13.77;11.90;;;20.20;99.90;;;;;;4997744;28;20634;-89
2022/07/10 03:28:17;;;;;;;16.02;10.48;;;20.40;99.90;;;;;;4992114;28;20278;-89
2022/07/10 03:30:43;;;;;;;17.00;11.68;;;20.50;99.90;;;;;;4992416;28;20019;-86
2022/07/10 03:33:08;;;;;;;13.25;11.55;;;20.50;99.90;;;;;;4993087;28;20046;-88
2022/07/10 03:35:34;;;;;;;16.48;13.20;;;20.50;99.50;;;;;;4996615;28;20412;-88
2022/07/10 03:38:00;;;;;;;15.27;11.80;;;20.40;99.40;;;;;;4994168;28;20105;-86
2022/07/10 03:40:27;;;;;;;14.60;12.85;;;20.30;99.70;;;;;;4993041;28;20022;-87
2022/07/10 03:42:52;;;;;;;15.77;13.43;;;20.30;99.90;;;;;;4992608;28;20023;-85
2022/07/10 03:45:18;;;;;;;20.75;15.30;;;20.40;99.90;;;;;;4991782;28;20322;-86
2022/07/10 03:47:44;;;;;;;16.95;14.13;;;20.40;99.90;;;;;;4986714;28;20379;-87
2022/07/10 03:50:10;;;;;;;17.75;12.30;;;20.40;99.90;;;;;;4993608;28;20026;-87
2022/07/10 03:52:35;;;;;;;15.77;12.88;;;20.40;99.80;;;;;;4993253;28;20057;-87
2022/07/10 03:55:02;;;;;;;14.73;11.43;;;20.40;99.40;;;;;;4993521;28;20046;-86
2022/07/10 04:00:12;;;;;;;19.45;13.30;;;20.30;97.90;;;;;;4988971;28;20084;-88
2022/07/10 04:02:39;;;;;;;12.73;11.50;;;20.20;98.00;;;;;;4975156;28;20060;-87
2022/07/10 04:05:09;;;;;;;16.00;9.63;;;20.20;98.20;;;;;;4988472;28;20015;-86
2022/07/10 04:07:36;;;;;;;12.50;10.35;;;20.00;97.70;;;;;;4998909;28;20037;-87
2022/07/10 04:10:03;;;;;;;12.13;9.57;;;19.90;97.80;;;;;;4995530;28;20482;-86
2022/07/10 04:12:28;;;;;;;11.00;8.90;;;19.70;98.20;;;;;;4995144;28;20041;-86
2022/07/10 04:14:56;;;;;;;12.02;10.27;;;19.60;98.20;;;;;;4993527;28;20387;-87
2022/07/10 04:17:22;;;;;;;11.68;10.48;;;19.50;98.50;;;;;;4960083;28;20022;-89
2022/07/10 04:19:47;;;;;;;11.95;10.77;;;19.50;98.70;;;;;;4993384;28;20026;-89
2022/07/10 04:22:14;;;;;;;13.52;11.35;;;19.70;98.80;;;;;;4993629;28;20081;-90
2022/07/10 04:24:40;;;;;;;13.65;11.27;;;19.90;99.10;;;;;;4994269;28;20018;-86
2022/07/10 04:27:06;;;;;;;11.65;10.30;;;20.10;98.60;;;;;;4994327;28;20029;-87
2022/07/10 04:29:32;;;;;;;15.13;11.20;;;20.20;98.00;;;;;;5011676;28;20022;-88
2022/07/10 04:31:58;;;;;;;11.52;10.43;;;20.30;97.90;;;;;;5006306;28;20041;-89
2022/07/10 04:34:24;;;;;;;12.57;9.57;;;20.40;97.10;;;;;;5007192;28;20050;-88
2022/07/10 04:36:50;;;;;;;12.68;10.30;;;20.40;97.00;;;;;;5006317;28;20034;-86
2022/07/10 04:39:16;;;;;;;12.07;9.40;;;20.50;96.70;;;;;;5003215;28;20101;-86
2022/07/10 04:41:42;;;;;;;11.82;9.07;;;20.60;96.40;;;;;;4998093;28;20045;-87
2022/07/10 04:44:08;;;;;;;12.25;9.18;;;20.80;96.10;;;;;;4999884;28;20037;-88
2022/07/10 04:46:34;;;;;;;12.45;10.60;;;21.10;95.90;;;;;;5001807;28;20027;-87
2022/07/10 04:48:59;;;;;;;12.32;9.18;;;21.40;95.30;;;;;;4997988;28;20539;-88
2022/07/10 04:51:25;;;;;;;10.88;9.40;;;21.70;95.00;;;;;;5001264;28;20057;-90
2022/07/10 04:53:51;;;;;;;10.35;9.32;;;21.90;94.70;;;;;;5005026;28;20053;-88
2022/07/10 04:56:17;;;;;;;13.73;10.10;;;22.10;94.30;;;;;;5001923;28;20034;-89
2022/07/10 04:58:43;;;;;;;13.63;10.23;;;22.20;93.40;;;;;;4996448;28;20018;-90
2022/07/10 05:01:08;;;;;;;11.95;10.57;;;22.50;92.70;;;;;;5003659;28;20022;-87
2022/07/10 05:03:34;;;;;;;12.57;9.80;;;;;;;;;;4999943;28;20026;-87
2022/07/10 05:06:00;;;;;;;16.02;10.38;;;22.80;92.00;;;;;;4999265;28;20157;-89
2022/07/10 05:08:26;;;;;;;15.90;10.82;;;23.00;91.40;;;;;;4999775;28;20038;-88
2022/07/10 05:10:52;;;;;;;16.23;11.35;;;23.20;91.20;;;;;;4999820;28;20520;-85
2022/07/10 05:13:18;;;;;;;15.45;11.20;;;23.40;90.10;;;;;;4991528;28;20025;-87
2022/07/10 05:15:46;;;;;;;14.13;11.23;;;23.60;90.10;;;;;;4998516;28;20052;-86
2022/07/10 05:18:12;;;;;;;12.27;11.02;;;24.00;88.40;;;;;;4991234;28;20378;-89
2022/07/10 05:20:42;;;;;;;13.02;11.75;;;23.80;87.20;;;;;;4984949;28;20144;-89
2022/07/10 05:23:08;;;;;;;16.92;13.55;;;23.80;87.00;;;;;;4992600;28;20029;-87
2022/07/10 05:25:34;;;;;;;18.88;11.85;;;23.90;87.00;;;;;;4979712;28;20054;-85
2022/07/10 05:28:00;;;;;;;14.98;10.75;;;24.30;86.30;;;;;;4999892;28;20054;-84
2022/07/10 05:30:25;;;;;;;15.25;11.88;;;25.20;84.10;;;;;;4992224;28;20030;-86
2022/07/10 05:32:51;;;;;;;17.90;10.32;;;26.00;80.00;;;;;;5017213;28;20083;-87
2022/07/10 05:35:17;;;;;;;16.92;11.18;;;26.10;78.20;;;;;;5002372;28;20038;-87
2022/07/10 05:37:43;;;;;;;16.63;11.68;;;26.10;77.30;;;;;;4999237;28;20018;-87
2022/07/10 05:40:09;;;;;;;13.30;11.30;;;26.30;76.70;;;;;;5000071;28;20388;-88
2022/07/10 05:42:35;;;;;;;15.32;10.57;;;26.50;75.90;;;;;;4999294;28;20022;-85
2022/07/10 05:45:01;;;;;;;17.55;11.63;;;26.60;75.40;;;;;;4993945;28;20033;-86
2022/07/10 05:47:27;;;;;;;17.87;11.83;;;27.00;75.00;;;;;;4996320;28;20026;-87
2022/07/10 05:49:53;;;;;;;14.32;11.60;;;27.10;73.10;;;;;;4995890;28;20018;-87
2022/07/10 05:52:19;;;;;;;13.90;11.85;;;27.40;73.00;;;;;;4995552;28;20504;-88
2022/07/10 05:54:45;;;;;;;20.25;13.48;;;28.40;71.50;;;;;;4996036;28;20030;-87
2022/07/10 05:57:11;;;;;;;15.25;11.38;;;28.80;68.60;;;;;;4993040;28;20381;-87
2022/07/10 05:59:37;;;;;;;17.15;11.80;;;29.30;67.10;;;;;;4996330;28;20030;-86
2022/07/10 06:02:03;;;;;;;17.45;11.82;;;29.30;66.00;;;;;;4995203;28;20424;-88
2022/07/10 06:04:29;;;;;;;13.47;12.07;;;29.50;65.30;;;;;;4982322;28;20019;-87
2022/07/10 06:06:54;;;;;;;22.15;12.57;;;29.60;64.60;;;;;;4974938;28;20026;-87
2022/07/10 06:09:20;;;;;;;14.10;12.68;;;30.20;63.80;;;;;;4995119;28;20057;-88
2022/07/10 06:11:48;;;;;;;16.67;12.37;;;31.10;61.80;;;;;;4995036;28;20026;-88
2022/07/10 06:14:14;;;;;;;13.45;11.98;;;32.00;60.00;;;;;;4995209;28;20019;-87
2022/07/10 06:16:40;;;;;;;13.45;12.05;;;33.30;56.60;;;;;;4980106;28;20034;-86
2022/07/10 06:19:06;;;;;;;13.27;11.90;;;33.30;55.10;;;;;;5000480;28;20432;-87
2022/07/10 06:21:32;;;;;;;14.13;12.00;;;33.00;55.20;;;;;;4998634;28;20034;-87
2022/07/10 06:23:58;;;;;;;17.00;11.80;;;33.00;56.20;;;;;;4984362;28;20140;-86
2022/07/10 06:26:24;;;;;;;12.35;11.15;;;33.40;55.10;;;;;;5004209;28;20037;-86
2022/07/10 06:28:50;;;;;;;14.20;11.50;;;33.20;54.70;;;;;;5004573;28;20023;-86
2022/07/10 06:31:16;;;;;;;16.67;11.00;;;33.20;54.50;;;;;;4985900;28;20267;-87
2022/07/10 06:33:42;;;;;;;12.30;10.07;;;33.20;54.10;;;;;;4999701;28;20049;-87
2022/07/10 06:36:08;;;;;;;10.60;9.57;;;34.20;53.80;;;;;;4981660;28;20104;-87
2022/07/10 06:38:35;;;;;;;12.70;9.77;;;34.10;52.00;;;;;;4985012;28;20030;-86
2022/07/10 06:41:01;;;;;;;11.85;9.32;;;33.60;51.60;;;;;;5001276;28;20108;-86
2022/07/10 06:43:27;;;;;;;12.40;9.77;;;32.40;53.30;;;;;;4998374;28;20054;-86
2022/07/10 06:45:54;;;;;;;10.40;8.60;;;31.90;54.70;;;;;;5005236;28;20030;-87
2022/07/10 06:48:20;;;;;;;14.88;10.18;;;31.60;54.60;;;;;;4987588;28;20026;-87
2022/07/10 06:50:47;;;;;;;10.60;9.40;;;31.00;55.20;;;;;;5002278;28;20085;-86
2022/07/10 06:53:13;;;;;;;10.32;9.32;;;30.20;56.60;;;;;;4997166;28;20062;-87
2022/07/10 06:55:39;;;;;;;13.77;10.48;;;29.60;58.20;;;;;;4989537;28;20045;-86
2022/07/10 06:58:05;;;;;;;10.63;9.63;;;29.20;59.20;;;;;;4998249;28;20031;-85
2022/07/10 07:00:31;;;;;;;11.60;9.63;;;29.10;60.10;;;;;;4995061;28;20019;-85
2022/07/10 07:02:56;;;;;;;10.90;9.73;;;29.20;59.80;;;;;;4995621;28;20373;-86
2022/07/10 07:05:22;;;;;;;10.43;9.35;;;29.10;59.90;;;;;;4999991;28;20120;-87
2022/07/10 07:07:48;;;;;;;15.32;10.75;;;29.00;60.80;;;;;;5004772;28;20014;-86
2022/07/10 07:10:14;;;;;;;12.25;9.40;;;29.00;60.70;;;;;;4998113;28;20037;-87
2022/07/10 07:12:40;;;;;;;11.88;10.23;;;29.00;61.20;;;;;;4979789;28;20384;-87
2022/07/10 07:15:07;;;;;;;14.60;11.18;;;28.90;60.90;;;;;;4998339;28;20030;-86
2022/07/10 07:17:56;;;;;;;11.30;9.63;;;28.90;61.50;;;;;;4998060;28;20114;-86
2022/07/10 07:23:10;;;;;;;10.77;9.70;;;30.00;61.00;;;;;;5006874;28;20070;-84
2022/07/10 07:25:41;;;;;;;12.50;9.93;;;31.60;57.90;;;;;;5002995;28;20062;-86
2022/07/10 07:28:09;;;;;;;13.25;10.10;;;32.30;55.30;;;;;;4997292;28;20029;-86
2022/07/10 07:30:35;;;;;;;15.45;10.05;;;33.00;54.20;;;;;;4962181;28;20048;-85
2022/07/10 07:33:01;;;;;;;13.07;10.50;;;33.90;52.20;;;;;;4993973;28;20081;-86
2022/07/10 07:35:27;;;;;;;13.82;9.35;;;35.40;50.60;;;;;;4997756;28;20073;-86
2022/07/10 07:37:53;;;;;;;10.75;9.30;;;37.10;48.20;;;;;;4998356;28;20037;-86
2022/07/10 07:40:23;;;;;;;15.35;10.05;;;38.40;45.90;;;;;;4997691;28;20395;-88
2022/07/10 07:42:50;;;;;;;9.75;8.40;;;38.80;43.90;;;;;;4997143;28;20022;-87
2022/07/10 07:45:17;;;;;;;11.90;8.32;;;38.70;42.80;;;;;;4996957;28;20026;-87
2022/07/10 07:47:49;;;;;;;11.50;8.85;;;37.80;43.90;;;;;;4978678;28;20468;-85
2022/07/10 07:50:17;;;;;;;9.88;8.18;;;37.80;43.80;;;;;;4995529;28;20022;-86
2022/07/10 07:52:44;;;;;;;12.02;8.27;;;37.50;43.50;;;;;;4996265;28;20081;-87
2022/07/10 07:55:10;;;;;;;11.07;8.35;;;37.00;45.20;;;;;;4999300;28;20510;-86
2022/07/10 07:57:36;;;;;;;;;;;37.70;44.70;;;;;;4980624;28;20054;-85
2022/07/10 08:00:04;;;;;;;9.15;8.10;;;40.10;43.80;;;;;;4995629;28;20342;-83
2022/07/10 08:02:31;;;;;;;8.80;7.95;;;;;;;;;;4991086;28;20030;-86
2022/07/10 08:04:56;;;;;;;;;;;40.30;40.10;;;;;;4991514;28;20046;-83
2022/07/10 08:07:22;;;;;;;8.68;7.85;;;40.30;41.40;;;;;;4993557;28;19917;-84
2022/07/10 08:09:49;;;;;;;15.07;8.18;;;40.00;40.00;;;;;;4996589;28;20022;-80
2022/07/10 08:12:15;;;;;;;12.30;8.23;;;40.00;39.90;;;;;;4995112;28;20109;-83
2022/07/10 08:14:41;;;;;;;;;;;;;;;;;;4974276;28;20019;-79
2022/07/10 08:17:07;;;;;;;10.82;7.70;;;40.80;40.80;;;;;;4999743;28;19914;-82
2022/07/10 08:19:33;;;;;;;8.57;7.78;;;40.90;39.20;;;;;;4983966;28;20037;-85
2022/07/10 08:21:59;;;;;;;9.00;8.10;;;40.60;38.70;;;;;;4997024;28;20042;-82
2022/07/10 08:24:24;;;;;;;12.80;7.00;;;39.90;39.10;;;;;;4999470;28;20101;-81
2022/07/10 08:26:50;;;;;;;10.38;7.93;;;38.60;40.30;;;;;;5000245;28;20034;-81
2022/07/10 08:29:16;;;;;;;9.35;7.32;;;37.00;42.30;;;;;;5000725;28;20026;-81
2022/07/10 08:31:42;;;;;;;17.67;9.48;;;36.00;43.60;;;;;;4999339;28;20172;-83
2022/07/10 08:34:08;;;;;;;8.88;7.88;;;35.70;44.50;;;;;;5001440;28;20042;-84
2022/07/10 08:36:34;;;;;;;10.57;7.93;;;35.50;45.20;;;;;;5011031;28;20038;-85
2022/07/10 08:39:00;;;;;;;11.18;9.02;;;35.70;44.50;;;;;;5001046;28;20111;-84
2022/07/10 08:41:27;;;;;;;9.63;7.57;;;35.70;44.60;;;;;;5002350;28;20349;-83
2022/07/10 08:43:53;;;;;;;12.90;7.93;;;35.80;44.40;;;;;;5003007;28;20026;-85
2022/07/10 08:46:19;;;;;;;11.40;7.47;;;35.90;45.40;;;;;;4982546;28;20092;-83
2022/07/10 08:48:48;;;;;;;10.40;7.25;;;36.30;43.50;;;;;;4999915;28;20365;-84
2022/07/10 08:51:24;;;;;;;8.55;7.10;;;36.60;43.70;;;;;;4996150;28;20022;-84
2022/07/10 08:53:51;;;;;;;11.32;8.13;;;36.30;42.80;;;;;;4981597;28;20428;-84
2022/07/10 08:56:17;;;;;;;27.92;9.63;;;36.00;43.90;;;;;;4998443;28;20447;-86
2022/07/10 08:58:44;;;;;;;9.80;7.32;;;35.60;44.00;;;;;;4999790;28;20097;-84
2022/07/10 09:01:10;;;;;;;6.75;6.10;;;35.80;43.60;;;;;;4970377;28;20122;-84
2022/07/10 09:03:37;;;;;;;11.45;6.60;;;36.80;42.20;;;;;;5000495;28;20501;-85
2022/07/10 09:06:05;;;;;;;9.27;5.30;;;38.10;40.40;;;;;;5000838;28;20033;-84
2022/07/10 09:08:35;;;;;;;10.20;5.85;;;38.90;39.20;;;;;;5001524;28;20022;-83
2022/07/10 09:11:18;;;;;;;13.55;7.68;;;40.40;39.30;;;;;;4984817;28;20034;-85
2022/07/10 09:13:55;;;;;;;10.27;5.68;;;41.70;38.00;;;;;;4976652;28;20023;-83
2022/07/10 09:16:26;;;;;;;6.65;4.93;;;42.80;36.00;;;;;;4987820;28;20479;-84
2022/07/10 09:18:52;;;;;;;15.00;8.70;;;42.20;35.30;;;;;;4984682;28;20014;-85
2022/07/10 09:21:18;;;;;;;7.65;5.00;;;41.90;35.80;;;;;;4985314;28;20029;-84
2022/07/10 09:23:44;;;;;;;;;;;42.20;35.30;;;;;;4997566;28;20034;-85
2022/07/10 09:26:10;;;;;;;5.82;4.22;;;42.40;36.80;;;;;;4989466;28;19924;-84
2022/07/10 09:28:36;;;;;;;;;;;42.90;35.00;;;;;;4987892;28;20022;-88
2022/07/10 09:31:02;;;;;;;7.70;5.40;;;43.40;36.20;;;;;;4983801;28;20367;-84
2022/07/10 09:33:33;;;;;;;5.60;4.15;;;43.60;34.20;;;;;;4986478;28;20497;-85
2022/07/10 09:38:46;;;;;;;39.50;10.52;;;44.40;33.10;;;;;;4996596;28;20041;-82
2022/07/10 09:41:29;;;;;;;6.47;4.22;;;44.40;32.70;;;;;;4980460;28;20022;-81
2022/07/10 09:43:57;;;;;;;9.30;4.13;;;43.70;32.40;;;;;;4997743;28;20030;-83
2022/07/10 09:46:26;;;;;;;40.10;9.18;;;42.90;33.10;;;;;;4997465;28;20098;-85
2022/07/10 09:49:06;;;;;;;5.18;3.90;;;42.80;33.80;;;;;;4963772;28;20030;-84
2022/07/10 09:51:38;;;;;;;8.15;4.28;;;43.10;33.40;;;;;;4999259;28;20015;-92
2022/07/10 09:54:06;;;;;;;71.20;14.30;;;42.90;33.20;;;;;;4987301;28;20054;-90
2022/07/10 09:56:55;;;;;;;5.40;3.75;;;41.80;33.70;;;;;;5003761;28;20065;-87
2022/07/10 09:59:21;;;;;;;12.32;5.28;;;41.70;34.20;;;;;;4984448;28;20033;-90
2022/07/10 10:01:48;;;;;;;;;;;42.00;34.60;;;;;;4988162;28;20053;-90
2022/07/10 10:04:16;;;;;;;6.32;3.55;;;42.60;34.70;;;;;;4996453;28;19912;-90
2022/07/10 10:06:43;;;;;;;7.38;3.80;;;43.00;33.40;;;;;;5003027;28;20556;-88
2022/07/10 10:09:24;;;;;;;19.50;6.05;;;42.80;33.40;;;;;;4983959;28;20030;-88
2022/07/10 10:12:00;;;;;;;7.60;3.40;;;42.80;33.00;;;;;;4995752;28;20103;-87
2022/07/10 10:14:28;;;;;;;6.03;3.67;;;43.00;33.10;;;;;;4982141;28;20030;-88
2022/07/10 10:16:56;;;;;;;80.85;17.55;;;43.30;32.50;;;;;;4990567;28;20038;-89
2022/07/10 10:22:09;;;;;;;17.80;5.93;;;43.40;30.90;;;;;;4995642;28;20045;-89
2022/07/10 10:24:38;;;;;;;20.55;5.20;;;43.40;31.10;;;;;;4987624;28;20018;-87
2022/07/10 10:27:06;;;;;;;22.17;4.60;;;43.80;31.10;;;;;;5000296;28;20065;-90
2022/07/10 10:29:34;;;;;;;5.55;3.20;;;44.20;31.30;;;;;;4986331;28;20057;-90
2022/07/10 10:32:01;;;;;;;9.35;3.35;;;44.50;31.30;;;;;;5001014;28;20031;-88
2022/07/10 10:34:44;;;;;;;6.38;3.33;;;44.20;31.70;;;;;;5004297;28;20030;-88
2022/07/10 10:37:36;;;;;;;6.18;3.65;;;42.80;32.30;;;;;;5001234;28;20045;-87
2022/07/10 10:40:05;;;;;;;10.27;3.22;;;40.70;33.80;;;;;;4993903;28;20045;-88
2022/07/10 10:42:39;;;;;;;7.60;3.75;;;39.00;35.60;;;;;;4988818;28;20514;-89
2022/07/10 10:45:31;;;;;;;8.38;3.83;;;37.60;37.80;;;;;;4998306;28;20022;-88
2022/07/10 10:48:00;;;;;;;6.68;4.20;;;36.20;37.80;;;;;;5006948;28;20036;-88
2022/07/10 10:50:41;;;;;;;11.75;4.57;;;35.10;39.70;;;;;;5004197;28;20022;-87
2022/07/10 10:53:22;;;;;;;6.32;4.65;;;34.10;41.30;;;;;;5000090;28;20061;-89
2022/07/10 10:56:00;;;;;;;5.90;4.10;;;33.30;41.70;;;;;;4974107;28;20105;-90
2022/07/10 10:58:28;;;;;;;7.53;4.90;;;32.50;42.90;;;;;;4974892;28;20602;-88
2022/07/10 11:01:04;;;;;;;6.22;4.53;;;32.00;44.50;;;;;;4975203;28;20074;-90
2022/07/10 11:03:30;;;;;;;8.02;4.97;;;31.90;45.00;;;;;;4964902;28;20107;-88
2022/07/10 11:05:56;;;;;;;5.63;4.40;;;31.80;45.90;;;;;;4963318;28;20027;-88
2022/07/10 11:08:43;;;;;;;5.30;3.60;;;31.70;44.50;;;;;;4971432;28;20035;-88
2022/07/10 11:11:36;;;;;;;7.03;3.83;;;31.70;44.20;;;;;;4961660;28;20485;-88
2022/07/10 11:14:04;;;;;;;8.20;4.40;;;31.60;43.70;;;;;;4974628;28;20035;-88
2022/07/10 11:16:32;;;;;;;5.85;3.45;;;31.60;44.80;;;;;;4975157;28;20038;-90
2022/07/10 11:18:58;;;;;;;9.02;3.38;;;31.70;44.30;;;;;;4957350;28;20086;-87
2022/07/10 11:21:25;;;;;;;7.80;4.13;;;31.70;44.70;;;;;;4979604;28;20042;-86
2022/07/10 11:24:03;;;;;;;5.00;3.83;;;31.70;44.90;;;;;;4972219;28;20039;-83
2022/07/10 11:26:35;;;;;;;9.15;4.65;;;31.70;44.60;;;;;;4974704;28;20038;-85
2022/07/10 11:29:05;;;;;;;5.90;4.20;;;31.70;45.30;;;;;;4973592;28;20022;-83
2022/07/10 11:31:34;;;;;;;7.20;4.20;;;31.80;45.40;;;;;;4972823;28;20219;-85
2022/07/10 11:34:00;;;;;;;6.15;3.90;;;31.80;45.60;;;;;;4986276;28;20046;-85
2022/07/10 11:36:31;;;;;;;7.70;4.03;;;31.90;46.20;;;;;;4984140;28;20030;-84
2022/07/10 11:39:05;;;;;;;5.82;4.53;;;32.20;45.40;;;;;;4995862;28;20030;-87
2022/07/10 11:41:31;;;;;;;5.97;3.70;;;32.20;45.10;;;;;;4996397;28;20019;-84
2022/07/10 11:43:59;;;;;;;7.70;3.78;;;32.20;45.60;;;;;;4994494;28;20049;-87
2022/07/10 11:46:32;;;;;;;9.13;3.65;;;32.20;44.70;;;;;;4994713;28;20092;-85
2022/07/10 11:48:58;;;;;;;6.82;3.88;;;32.00;45.50;;;;;;4997734;28;20030;-86
2022/07/10 11:51:31;;;;;;;7.35;4.05;;;32.00;44.90;;;;;;4998826;28;20050;-82
2022/07/10 11:54:06;;;;;;;7.97;4.20;;;32.00;45.70;;;;;;4999302;28;20061;-87
2022/07/10 11:56:37;;;;;;;8.85;4.78;;;32.00;45.00;;;;;;4997394;28;20129;-87
2022/07/10 11:59:07;;;;;;;9.50;4.25;;;31.70;45.70;;;;;;4999466;28;20022;-86
2022/07/10 12:01:42;;;;;;;6.50;3.92;;;31.50;45.90;;;;;;5001509;28;20604;-90
2022/07/10 12:04:09;;;;;;;5.93;4.95;;;31.50;46.60;;;;;;4994489;28;20069;-86
2022/07/10 12:06:37;;;;;;;7.78;4.20;;;31.50;46.40;;;;;;4997243;28;20053;-86
2022/07/10 12:09:04;;;;;;;9.93;4.35;;;31.50;46.50;;;;;;4999000;28;20058;-84
2022/07/10 12:11:30;;;;;;;4.93;3.75;;;31.60;46.70;;;;;;4998547;28;20580;-84
2022/07/10 12:14:11;;;;;;;9.23;4.33;;;31.70;47.00;;;;;;4998067;28;20054;-87
2022/07/10 12:16:36;;;;;;;6.47;3.50;;;31.80;47.00;;;;;;4996845;28;20034;-84
2022/07/10 12:19:03;;;;;;;6.47;3.70;;;31.90;46.30;;;;;;4992774;28;20023;-85
2022/07/10 12:21:29;;;;;;;12.23;4.50;;;32.00;46.30;;;;;;4991260;28;20022;-85
2022/07/10 12:23:56;;;;;;;10.20;4.45;;;32.10;47.00;;;;;;4977140;28;20424;-84
2022/07/10 12:26:30;;;;;;;7.72;3.88;;;32.10;46.70;;;;;;4995098;28;20133;-85
2022/07/10 12:28:56;;;;;;;7.97;4.07;;;32.20;45.90;;;;;;4996494;28;20031;-85
2022/07/10 12:31:23;;;;;;;8.67;3.77;;;32.20;46.40;;;;;;4997212;28;20022;-85
2022/07/10 12:33:57;;;;;;;7.00;3.97;;;32.00;46.10;;;;;;5000533;28;20073;-86
2022/07/10 12:36:23;;;;;;;10.02;3.80;;;31.80;45.90;;;;;;5005620;28;20034;-86
2022/07/10 12:38:59;;;;;;;6.28;3.90;;;31.60;46.30;;;;;;5002489;28;20033;-87
2022/07/10 12:41:25;;;;;;;26.50;7.78;;;31.50;46.50;;;;;;4983989;28;20388;-86
2022/07/10 12:43:53;;;;;;;8.47;4.77;;;31.40;47.40;;;;;;4986098;28;20026;-85
2022/07/10 12:46:24;;;;;;;5.15;3.95;;;31.40;47.60;;;;;;4994506;28;20022;-87
2022/07/10 12:49:07;;;;;;;4.68;3.55;;;31.40;46.60;;;;;;4996305;28;20093;-87
2022/07/10 12:51:50;;;;;;;7.18;4.18;;;31.30;47.10;;;;;;4994112;28;20154;-84
2022/07/10 12:54:35;;;;;;;10.27;4.18;;;31.20;47.90;;;;;;4992887;28;20023;-85